Terminal Aerodrome Forecast
Issued by NWS Cleveland, OH

Home | Current Version | Previous Version | Graphics & Text | Print | Product List | Glossary On
Versions: 1 2 3 4 5 6 7 8 9 10 11 12 13 14
284
FTUS41 KCLE 182331
TAFTOL
TAF
KTOL 182331Z 1900/1924 06008KT 6SM -RA OVC035
      TEMPO 1900/1903 5SM -RA OVC025
     FM190300 04012G20KT 4SM -RASN OVC015
     FM190600 01012G20KT 1 1/2SM -SN OVC005
     FM191000 32014G22KT 3SM -SN OVC010
     FM191500 32015G25KT P6SM BKN025=

USA.gov is the U.S. government's official web portal to all federal, state and local government web resources and services.